Time;durP1;ratioP1;P1;durP2;ratioP2;P2;SDS_P1;SDS_P2;PMS_P1;PMS_P2;Temp;Humidity;BMP_temperature;BMP_pressure;BME280_temperature;BME280_humidity;BME280_pressure;Samples;Min_cycle;Max_cycle;Signal;HPM_P1;HPM_P2
2021/06/14 00:01:15;;;;;;;;;11.00;10.00;;;;;25.34;34.36;101798.53;5059546;28;45627;-82
2021/06/14 00:03:41;;;;;;;;;12.00;11.50;;;;;25.34;34.84;101817.09;5058718;28;46341;-81
2021/06/14 00:06:07;;;;;;;;;13.00;11.00;;;;;25.21;35.44;101801.22;5059017;28;45886;-81
2021/06/14 00:08:33;;;;;;;;;12.00;11.75;;;;;25.13;35.25;101790.59;5043924;28;45291;-81
2021/06/14 00:10:59;;;;;;;;;19.25;14.75;;;;;25.21;35.30;101820.66;5064240;28;45264;-80
2021/06/14 00:13:28;;;;;;;;;17.75;14.75;;;;;25.11;35.13;101802.97;5059240;28;46074;-81
2021/06/14 00:15:54;;;;;;;;;19.75;18.75;;;;;25.12;35.37;101810.03;5059184;28;45680;-81
2021/06/14 00:18:21;;;;;;;;;19.75;14.75;;;;;25.01;35.85;101816.22;5059011;28;45375;-81
2021/06/14 00:20:54;;;;;;;;;16.00;16.00;;;;;24.95;35.76;101817.97;5059176;28;45506;-81
2021/06/14 00:23:22;;;;;;;;;14.50;12.50;;;;;24.80;35.27;101802.94;5058626;28;45923;-81
2021/06/14 00:25:49;;;;;;;;;16.75;15.25;;;;;24.84;35.83;101817.97;5041065;28;45368;-82
2021/06/14 00:28:16;;;;;;;;;18.75;16.50;;;;;24.80;36.09;101816.19;5059114;28;45368;-83
2021/06/14 00:30:44;;;;;;;;;17.25;16.25;;;;;24.81;35.85;101824.16;5059463;28;45631;-81
2021/06/14 00:33:11;;;;;;;;;16.75;15.00;;;;;24.78;35.76;101821.50;5058577;28;45515;-81
2021/06/14 00:35:38;;;;;;;;;13.25;12.75;;;;;24.63;35.87;101810.84;5058772;28;45807;-81
2021/06/14 00:38:05;;;;;;;;;13.25;11.50;;;;;24.73;36.06;101825.88;5063446;28;45340;-81
2021/06/14 00:40:32;;;;;;;;;8.75;8.75;;;;;24.71;35.91;101820.59;5061080;28;45597;-81
2021/06/14 00:42:58;;;;;;;;;7.50;7.25;;;;;24.61;35.83;101812.63;5058946;28;45347;-82
2021/06/14 00:45:29;;;;;;;;;8.75;6.25;;;;;24.61;35.97;101817.91;5058955;28;45263;-81
2021/06/14 00:47:55;;;;;;;;;6.00;5.00;;;;;24.62;36.08;101820.56;5058584;28;45371;-81
2021/06/14 00:50:33;;;;;;;;;5.00;5.00;;;;;24.66;36.10;101825.00;5058595;28;45449;-81
2021/06/14 00:52:59;;;;;;;;;9.00;5.00;;;;;24.60;35.97;101814.38;5058502;28;45311;-82
2021/06/14 00:55:25;;;;;;;;;5.75;5.50;;;;;24.60;35.94;101819.66;5057966;28;45289;-82
2021/06/14 00:57:51;;;;;;;;;4.00;4.00;;;;;24.57;35.83;101814.34;5058690;28;45387;-81
2021/06/14 01:00:18;;;;;;;;;4.50;4.50;;;;;24.57;36.25;101817.00;5058785;28;45398;-81
2021/06/14 01:02:43;;;;;;;;;6.25;5.50;;;;;24.41;36.17;101798.44;5058384;28;45456;-82
2021/06/14 01:05:10;;;;;;;;;5.25;5.25;;;;;24.51;35.89;101814.34;5058152;28;45426;-82
2021/06/14 01:07:39;;;;;;;;;6.75;5.00;;;;;24.44;36.52;101808.13;5060399;28;45272;-81
2021/06/14 01:10:07;;;;;;;;;7.00;7.00;;;;;24.47;36.55;101818.75;5063966;28;45347;-81
2021/06/14 01:13:19;;;;;;;;;7.25;7.25;;;;;24.41;36.35;101808.13;5059528;28;45664;-81
2021/06/14 01:16:09;;;;;;;;;6.25;6.25;;;;;24.45;37.30;101812.56;4980252;28;45877;-82
2021/06/14 01:18:49;;;;;;;;;6.00;6.00;;;;;24.41;37.45;101814.31;4997012;28;45452;-81
2021/06/14 01:21:26;;;;;;;;;7.00;7.00;;;;;24.29;37.58;101795.75;5041598;28;45438;-81
2021/06/14 01:24:05;;;;;;;;;7.00;7.00;;;;;24.37;38.07;101809.00;5058676;28;45585;-80
2021/06/14 01:26:44;;;;;;;;;9.50;8.00;;;;;24.36;38.19;101808.13;5058538;28;45831;-82
2021/06/14 01:29:13;;;;;;;;;8.50;8.50;;;;;24.25;38.29;101792.22;5040663;28;45482;-82
2021/06/14 01:31:40;;;;;;;;;9.25;8.75;;;;;24.24;38.92;101793.09;5058872;28;45448;-81
2021/06/14 01:34:08;;;;;;;;;10.00;8.50;;;;;24.16;38.89;101784.25;5058625;28;45761;-80
2021/06/14 01:36:36;;;;;;;;;10.00;8.75;;;;;24.13;39.31;101784.22;5061417;28;45343;-81
2021/06/14 01:39:05;;;;;;;;;7.00;7.00;;;;;24.08;38.96;101784.22;5063687;28;45513;-80
2021/06/14 01:41:32;;;;;;;;;9.00;9.00;;;;;23.97;38.92;101783.28;5060244;28;45435;-81
2021/06/14 01:44:01;;;;;;;;;10.00;7.25;;;;;23.93;39.75;101787.63;5059294;28;45320;-83
2021/06/14 01:46:31;;;;;;;;;7.50;6.00;;;;;23.88;39.50;101768.19;5059144;28;45829;-81
2021/06/14 01:48:59;;;;;;;;;9.00;8.50;;;;;23.77;39.78;101761.97;5059099;28;45245;-81
2021/06/14 01:51:30;;;;;;;;;8.75;8.75;;;;;23.72;39.66;101766.38;5059458;28;45344;-79
2021/06/14 01:54:08;;;;;;;;;9.00;8.00;;;;;23.60;40.53;101754.84;5042337;28;46280;-81
2021/06/14 01:56:38;;;;;;;;;5.75;4.50;;;;;23.62;40.33;101761.03;5061019;28;45664;-81
2021/06/14 01:59:06;;;;;;;;;9.50;6.75;;;;;23.56;40.78;101754.81;5060412;28;45472;-82
2021/06/14 02:01:36;;;;;;;;;8.00;7.50;;;;;23.44;40.61;101737.13;5060716;28;45595;-82
2021/06/14 02:04:02;;;;;;;;;8.25;7.25;;;;;23.52;40.53;101753.03;5059467;28;45351;-84
2021/06/14 02:06:34;;;;;;;;;7.00;7.00;;;;;23.44;40.54;101740.66;5059959;28;45674;-83
2021/06/14 02:09:06;;;;;;;;;5.25;5.00;;;;;23.42;40.84;101745.03;5084377;28;45229;-84
2021/06/14 02:11:33;;;;;;;;;9.00;9.00;;;;;23.36;41.18;101742.38;5090396;27;45433;-83
2021/06/14 02:14:00;;;;;;;;;7.25;7.25;;;;;23.33;41.02;101742.34;5090992;28;45491;-83
2021/06/14 02:16:28;;;;;;;;;6.50;5.75;;;;;23.30;41.20;101735.28;5089469;28;45354;-84
2021/06/14 02:18:55;;;;;;;;;7.00;7.00;;;;;23.22;41.06;101733.47;5086386;28;45418;-85
2021/06/14 02:21:21;;;;;;;;;7.00;7.00;;;;;23.19;41.42;101729.06;5088949;27;45172;-84
2021/06/14 02:23:47;;;;;;;;;8.00;8.00;;;;;23.21;41.26;101727.31;5089442;28;45296;-85
2021/06/14 02:26:14;;;;;;;;;7.25;6.00;;;;;23.26;41.64;101729.97;5090546;28;45148;-84
2021/06/14 02:28:40;;;;;;;;;7.75;6.75;;;;;23.25;41.12;101729.09;5092191;28;45508;-85
2021/06/14 02:31:07;;;;;;;;;7.25;7.00;;;;;23.30;40.87;101729.09;5086132;27;45386;-85
2021/06/14 02:33:33;;;;;;;;;9.75;9.25;;;;;23.22;41.67;101721.13;5083445;27;45455;-86
2021/06/14 02:35:59;;;;;;;;;9.25;7.00;;;;;23.25;41.30;101721.16;5085924;28;45213;-85
2021/06/14 02:38:27;;;;;;;;;9.75;8.50;;;;;23.19;41.12;101719.34;5087819;27;45371;-86
2021/06/14 02:40:53;;;;;;;;;7.75;7.50;;;;;23.21;41.01;101714.09;5086779;27;45263;-85
2021/06/14 02:43:21;;;;;;;;;5.25;5.25;;;;;23.24;40.99;101718.50;5081541;27;45261;-85
2021/06/14 02:45:48;;;;;;;;;5.00;5.00;;;;;23.27;40.68;101719.41;5081818;27;45412;-85
2021/06/14 02:48:16;;;;;;;;;6.00;5.50;;;;;23.23;40.56;101701.75;5077886;27;45569;-85
2021/06/14 02:50:43;;;;;;;;;7.75;5.25;;;;;23.31;40.04;101710.66;5076622;28;45498;-85
2021/06/14 02:53:13;;;;;;;;;6.50;6.50;;;;;23.27;40.17;101700.91;5076999;28;45427;-84
2021/06/14 02:56:04;;;;;;;;;6.75;5.00;;;;;23.28;40.43;101709.72;5075742;28;45898;-87
2021/06/14 02:58:33;;;;;;;;;5.75;5.75;;;;;23.26;40.62;101707.06;5077642;27;45251;-86
2021/06/14 03:01:01;;;;;;;;;8.50;6.50;;;;;23.30;40.09;101714.16;5077496;27;45624;-86
2021/06/14 03:03:26;;;;;;;;;6.00;6.00;;;;;23.17;40.32;101707.84;5075565;28;47608;-85
2021/06/14 03:05:54;;;;;;;;;3.75;3.75;;;;;23.18;40.22;101716.69;5076750;28;45303;-83
2021/06/14 03:08:22;;;;;;;;;8.75;6.00;;;;;23.23;40.29;101717.59;5077883;28;45496;-83
2021/06/14 03:10:48;;;;;;;;;7.75;5.00;;;;;23.22;40.36;101717.59;5082522;28;45404;-83
2021/06/14 03:13:15;;;;;;;;;8.25;6.00;;;;;23.18;40.58;101717.53;5077956;28;46117;-82
2021/06/14 03:15:42;;;;;;;;;7.50;6.25;;;;;23.16;40.35;101706.09;5078306;28;45421;-85
2021/06/14 03:18:10;;;;;;;;;7.00;6.50;;;;;23.02;40.39;101686.63;5077768;28;45319;-83
2021/06/14 03:20:40;;;;;;;;;8.75;7.25;;;;;23.18;40.42;101714.91;5077540;28;45522;-84
2021/06/14 03:23:08;;;;;;;;;7.75;6.00;;;;;23.09;40.67;101704.28;5076989;28;45356;-83
2021/06/14 03:25:34;;;;;;;;;5.75;5.50;;;;;23.13;40.45;101718.38;5076745;27;45231;-82
2021/06/14 03:28:03;;;;;;;;;6.25;6.25;;;;;23.12;40.57;101716.63;5076304;28;46105;-82
2021/06/14 03:30:30;;;;;;;;;5.50;5.50;;;;;23.08;40.23;101720.13;5076461;27;45501;-82
2021/06/14 03:32:56;;;;;;;;;7.00;5.75;;;;;23.04;40.56;101724.50;5091618;27;45611;-84
2021/06/14 03:35:23;;;;;;;;;8.50;7.00;;;;;23.01;40.53;101727.13;5076560;28;45358;-83
2021/06/14 03:37:50;;;;;;;;;6.25;5.75;;;;;22.91;40.80;101720.88;5078693;28;45240;-83
2021/06/14 03:40:17;;;;;;;;;7.75;7.00;;;;;22.93;40.61;101734.09;5081244;27;45418;-83
2021/06/14 03:42:44;;;;;;;;;7.00;6.25;;;;;22.83;42.12;101730.50;5076920;28;45544;-85
2021/06/14 03:45:11;;;;;;;;;9.00;8.25;;;;;22.75;42.40;101721.63;5077834;28;45415;-83
2021/06/14 03:47:38;;;;;;;;;8.75;8.50;;;;;22.80;42.57;101739.28;5077218;27;45256;-83
2021/06/14 03:50:06;;;;;;;;;9.50;8.50;;;;;22.59;43.10;101728.50;5077141;27;45313;-84
2021/06/14 03:52:32;;;;;;;;;8.75;7.75;;;;;22.48;43.45;101733.66;5076308;28;46486;-82
2021/06/14 03:54:58;;;;;;;;;9.50;8.50;;;;;22.35;44.44;101732.63;5075813;28;45422;-85
2021/06/14 03:57:23;;;;;;;;;11.75;9.75;;;;;22.29;44.11;101740.50;5056900;28;45383;-85
2021/06/14 03:59:49;;;;;;;;;9.00;8.25;;;;;22.20;44.67;101741.28;5055850;28;45510;-82
2021/06/14 04:02:15;;;;;;;;;11.75;8.75;;;;;22.14;44.92;101731.53;5054918;28;45688;-82
2021/06/14 04:04:44;;;;;;;;;10.75;9.50;;;;;22.10;44.74;101733.25;5059768;28;45548;-82
2021/06/14 04:07:10;;;;;;;;;9.50;9.00;;;;;22.10;45.14;101730.63;5066893;28;45245;-80
2021/06/14 04:09:36;;;;;;;;;10.25;9.25;;;;;22.13;45.13;101732.41;5063188;28;45415;-81
2021/06/14 04:12:03;;;;;;;;;9.25;9.00;;;;;22.16;45.27;101731.53;5062978;28;45331;-86
2021/06/14 04:14:29;;;;;;;;;11.00;9.50;;;;;22.14;45.37;101725.38;5059653;28;45332;-87
2021/06/14 04:16:54;;;;;;;;;8.75;8.50;;;;;22.14;45.29;101728.03;5060421;28;45405;-87
2021/06/14 04:19:20;;;;;;;;;10.75;9.00;;;;;22.05;45.35;101723.53;5057742;28;45644;-83
2021/06/14 04:21:46;;;;;;;;;8.00;8.00;;;;;22.08;45.49;101744.66;5055053;28;45267;-82
2021/06/14 04:24:12;;;;;;;;;10.25;10.00;;;;;21.94;45.52;101729.56;5054842;28;45404;-82
2021/06/14 04:26:37;;;;;;;;;10.00;9.00;;;;;21.90;45.71;101733.00;5059165;28;45193;-82
2021/06/14 04:29:04;;;;;;;;;8.25;8.25;;;;;21.93;45.97;101746.22;5059022;28;45518;-82
2021/06/14 04:31:29;;;;;;;;;12.00;8.25;;;;;21.87;46.04;101738.22;5058069;28;45498;-81
2021/06/14 04:33:55;;;;;;;;;8.75;8.75;;;;;21.87;46.08;101737.34;5058527;28;45571;-81
2021/06/14 04:36:21;;;;;;;;;8.75;8.75;;;;;21.78;46.40;101732.84;5040537;28;45469;-86
2021/06/14 04:38:46;;;;;;;;;12.00;10.50;;;;;21.76;45.97;101756.56;5041719;28;45517;-88
2021/06/14 04:41:12;;;;;;;;;9.75;8.75;;;;;21.68;46.52;101745.03;5065320;28;45355;-87
2021/06/14 04:43:38;;;;;;;;;9.25;8.25;;;;;21.61;46.42;101756.31;5066235;28;45448;-84
2021/06/14 04:46:03;;;;;;;;;12.50;10.00;;;;;21.68;46.91;101763.47;5065626;28;45508;-87
2021/06/14 04:48:29;;;;;;;;;9.00;9.00;;;;;21.68;46.73;101765.22;5060046;28;45494;-84
2021/06/14 04:50:54;;;;;;;;;8.75;8.25;;;;;21.74;46.17;101762.69;5059956;28;45486;-88
2021/06/14 04:53:20;;;;;;;;;13.75;10.00;;;;;21.81;45.91;101769.78;5059538;28;45458;-86
2021/06/14 04:55:46;;;;;;;;;9.75;7.75;;;;;21.82;46.35;101762.75;5065509;28;45452;-86
2021/06/14 04:58:12;;;;;;;;;11.00;9.00;;;;;21.79;46.53;101768.88;5078535;27;45396;-85
2021/06/14 05:00:38;;;;;;;;;11.25;9.75;;;;;21.73;46.71;101774.09;5079368;27;45936;-81
2021/06/14 05:03:04;;;;;;;;;10.50;9.00;;;;;21.65;46.60;101785.38;5078344;27;45367;-83
2021/06/14 05:05:29;;;;;;;;;11.50;9.50;;;;;21.60;46.68;101779.19;5058972;28;45522;-82
2021/06/14 05:07:55;;;;;;;;;11.50;11.00;;;;;21.60;47.05;101780.91;5078936;27;45528;-81
2021/06/14 05:10:21;;;;;;;;;12.50;10.50;;;;;21.68;46.98;101779.28;5076370;28;46114;-79
2021/06/14 05:12:47;;;;;;;;;11.25;11.00;;;;;21.81;47.00;101788.25;5044535;28;45300;-80
2021/06/14 05:15:13;;;;;;;;;10.00;10.00;;;;;21.77;46.57;101783.78;5059367;28;45319;-81
2021/06/14 05:17:39;;;;;;;;;11.75;11.00;;;;;21.79;47.14;101793.50;5060383;28;45359;-84
2021/06/14 05:20:06;;;;;;;;;11.00;10.00;;;;;21.84;47.03;101795.31;5049046;28;45593;-88
2021/06/14 05:22:32;;;;;;;;;11.00;10.75;;;;;21.86;46.77;101791.84;5080637;28;45428;-86
2021/06/14 05:24:57;;;;;;;;;11.75;11.75;;;;;21.97;46.65;101797.25;5042726;28;45509;-85
2021/06/14 05:27:23;;;;;;;;;11.50;10.75;;;;;21.95;46.43;101786.69;5050854;28;45653;-89
2021/06/14 05:29:49;;;;;;;;;14.00;10.00;;;;;22.01;46.45;101779.72;5056459;28;45837;-87
2021/06/14 05:32:14;;;;;;;;;10.50;9.00;;;;;22.07;45.98;101779.81;5063790;28;45507;-87
2021/06/14 05:34:40;;;;;;;;;12.50;12.50;;;;;22.11;46.30;101781.59;5060045;28;45486;-81
2021/06/14 05:37:06;;;;;;;;;11.50;9.75;;;;;22.15;45.93;101770.22;5055954;28;45507;-82
2021/06/14 05:39:32;;;;;;;;;14.75;11.25;;;;;22.29;46.00;101774.78;5059640;28;45511;-79
2021/06/14 05:41:58;;;;;;;;;11.25;10.00;;;;;22.33;45.85;101772.22;5066936;27;45482;-81
2021/06/14 05:44:26;;;;;;;;;14.50;12.00;;;;;22.27;45.76;101762.47;5069295;28;45411;-82
2021/06/14 05:46:52;;;;;;;;;12.00;11.00;;;;;22.32;45.60;101782.72;5047105;28;45213;-89
2021/06/14 05:49:18;;;;;;;;;11.00;10.50;;;;;22.30;45.89;101788.00;5053986;28;46733;-84
2021/06/14 05:51:44;;;;;;;;;15.75;12.00;;;;;22.23;45.78;101776.47;5066896;28;45386;-85
2021/06/14 05:54:09;;;;;;;;;11.00;11.00;;;;;22.22;45.99;101772.06;5069897;27;45389;-86
2021/06/14 05:56:35;;;;;;;;;10.75;9.25;;;;;22.30;45.82;101773.94;5074371;28;45479;-84
2021/06/14 05:59:02;;;;;;;;;12.00;10.75;;;;;22.37;45.14;101787.19;5078512;27;46167;-85
2021/06/14 06:01:31;;;;;;;;;9.75;9.00;;;;;22.36;44.87;101790.69;5078104;27;45935;-84
2021/06/14 06:03:57;;;;;;;;;10.75;10.00;;;;;22.34;45.15;101789.81;5048986;28;45507;-84
2021/06/14 06:06:22;;;;;;;;;10.75;10.75;;;;;22.29;45.41;101778.31;5053135;28;45483;-85
2021/06/14 06:08:48;;;;;;;;;12.50;11.00;;;;;22.40;45.14;101787.25;5055377;28;45468;-82
2021/06/14 06:11:14;;;;;;;;;14.50;12.50;;;;;22.44;44.95;101792.59;5050689;28;45301;-84
2021/06/14 06:13:39;;;;;;;;;15.00;13.25;;;;;22.47;44.79;101780.31;5056189;28;45515;-82
2021/06/14 06:16:05;;;;;;;;;12.25;12.25;;;;;22.59;45.32;101786.59;5052599;28;45403;-83
2021/06/14 06:18:31;;;;;;;;;12.25;11.00;;;;;22.62;44.83;101784.84;5055619;28;45419;-88
2021/06/14 06:20:57;;;;;;;;;14.75;13.50;;;;;22.64;44.84;101771.66;5058121;28;45464;-84
2021/06/14 06:23:22;;;;;;;;;14.75;12.50;;;;;22.62;44.42;101758.47;5059437;28;45436;-84
2021/06/14 06:25:48;;;;;;;;;13.00;13.00;;;;;22.76;44.76;101777.06;5059125;28;45440;-84
2021/06/14 06:28:14;;;;;;;;;16.25;14.50;;;;;22.61;44.22;101753.19;5054166;28;46488;-86
2021/06/14 06:30:40;;;;;;;;;16.00;13.25;;;;;22.67;44.29;101776.97;5064539;28;45443;-85
2021/06/14 06:33:08;;;;;;;;;12.75;12.75;;;;;22.66;44.38;101767.28;5065550;28;45396;-83
2021/06/14 06:35:34;;;;;;;;;12.25;10.25;;;;;22.64;44.19;101758.47;5056893;28;45279;-88
2021/06/14 06:38:01;;;;;;;;;10.75;10.75;;;;;22.78;43.72;101769.19;5042281;28;45517;-87
2021/06/14 06:40:27;;;;;;;;;11.00;11.00;;;;;22.79;43.95;101763.91;5039095;28;45443;-86
2021/06/14 06:42:56;;;;;;;;;10.00;10.00;;;;;22.85;43.98;101760.44;5044901;28;45435;-85
2021/06/14 06:45:23;;;;;;;;;9.00;9.00;;;;;22.94;42.97;101764.94;5052996;28;45320;-86
2021/06/14 06:47:49;;;;;;;;;10.75;9.50;;;;;22.95;42.98;101764.03;5062964;28;45548;-86
2021/06/14 06:50:15;;;;;;;;;10.50;9.25;;;;;23.00;43.10;101767.59;5060644;28;45266;-85
2021/06/14 06:52:41;;;;;;;;;8.75;8.00;;;;;23.07;42.56;101769.41;5040856;28;45434;-81
2021/06/14 06:55:11;;;;;;;;;8.75;8.75;;;;;23.17;42.44;101773.03;5041646;28;46180;-84
2021/06/14 06:57:37;;;;;;;;;13.25;9.00;;;;;23.24;42.03;101758.16;5046937;28;45438;-83
2021/06/14 07:00:06;;;;;;;;;11.75;10.00;;;;;23.29;42.06;101766.97;5056141;28;45874;-83
2021/06/14 07:02:31;;;;;;;;;10.00;9.50;;;;;23.35;41.42;101764.38;5056500;28;45513;-82
2021/06/14 07:04:58;;;;;;;;;8.00;7.25;;;;;23.32;41.02;101751.16;5055492;28;45574;-83
2021/06/14 07:07:23;;;;;;;;;10.25;8.25;;;;;23.45;40.85;101760.94;5057715;28;45371;-84
2021/06/14 07:09:49;;;;;;;;;12.25;9.25;;;;;23.40;41.19;101735.34;5042751;28;45359;-86
2021/06/14 07:12:15;;;;;;;;;9.00;8.50;;;;;23.52;40.71;101756.56;5045354;28;45202;-83
2021/06/14 07:14:41;;;;;;;;;10.50;10.00;;;;;23.52;40.53;101751.28;5060626;28;45233;-88
2021/06/14 07:17:07;;;;;;;;;12.00;10.25;;;;;23.62;40.58;101760.13;5041845;28;47040;-81
2021/06/14 07:19:32;;;;;;;;;8.25;8.25;;;;;23.64;40.55;101759.28;5057162;28;45333;-83
2021/06/14 07:21:58;;;;;;;;;10.50;9.25;;;;;23.60;39.86;101749.56;5056962;28;45441;-88
2021/06/14 07:24:23;;;;;;;;;11.00;8.25;;;;;23.60;40.02;101753.94;5063028;28;45229;-85
2021/06/14 07:26:49;;;;;;;;;8.00;7.50;;;;;23.57;39.94;101743.38;5057169;28;45813;-82
2021/06/14 07:29:15;;;;;;;;;6.50;6.00;;;;;23.67;40.22;101749.59;5056662;28;45344;-83
2021/06/14 07:31:41;;;;;;;;;7.00;7.00;;;;;23.74;39.55;101752.28;5058162;28;45272;-83
2021/06/14 07:34:08;;;;;;;;;16.25;7.75;;;;;23.83;39.77;101754.09;5040121;28;45398;-86
2021/06/14 07:36:35;;;;;;;;;11.00;8.00;;;;;23.87;39.61;101757.63;5058187;28;46363;-84
2021/06/14 07:39:02;;;;;;;;;10.50;7.75;;;;;23.80;39.52;101741.75;5045485;28;45287;-86
2021/06/14 07:41:28;;;;;;;;;12.25;6.75;;;;;23.92;38.96;101755.88;5066672;28;45387;-85
2021/06/14 07:43:53;;;;;;;;;9.50;9.00;;;;;23.97;39.08;101759.47;5078344;28;45328;-82
2021/06/14 07:46:19;;;;;;;;;10.25;9.00;;;;;23.93;38.80;101739.13;5072975;28;46082;-83
2021/06/14 07:48:45;;;;;;;;;9.50;9.00;;;;;24.05;38.77;101755.09;5073993;28;45103;-83
2021/06/14 07:51:11;;;;;;;;;6.00;6.00;;;;;24.06;38.67;101740.13;5062880;28;45483;-82
2021/06/14 07:53:37;;;;;;;;;10.00;7.75;;;;;24.09;38.91;101735.72;5043871;28;45489;-82
2021/06/14 07:56:03;;;;;;;;;10.75;8.50;;;;;24.17;38.75;101745.44;5056685;28;45285;-82
2021/06/14 07:58:29;;;;;;;;;10.50;10.25;;;;;24.20;38.71;101745.44;5056908;28;45709;-84
2021/06/14 08:00:55;;;;;;;;;10.25;8.25;;;;;24.25;38.81;101749.88;5060091;28;45407;-83
2021/06/14 08:03:23;;;;;;;;;9.00;7.75;;;;;24.30;38.16;101741.94;5062497;28;45487;-84
2021/06/14 08:05:50;;;;;;;;;13.00;10.00;;;;;24.34;38.46;101735.78;5063147;28;45848;-88
2021/06/14 08:08:16;;;;;;;;;9.25;9.25;;;;;24.32;38.14;101726.97;5048533;28;45715;-85
2021/06/14 08:10:43;;;;;;;;;9.00;8.00;;;;;24.30;37.94;101726.06;5034194;28;45432;-85
2021/06/14 08:13:09;;;;;;;;;10.75;8.00;;;;;24.39;37.91;101734.03;5045728;28;45372;-82
2021/06/14 08:15:35;;;;;;;;;13.50;9.50;;;;;24.44;37.28;101730.50;5040909;28;45899;-84
2021/06/14 08:21:12;;;;;;;;;10.00;10.00;;;;;24.52;37.35;101726.97;5057152;28;45498;-82
2021/06/14 08:26:27;;;;;;;;;11.00;7.25;;;;;24.61;37.43;101712.00;5060280;28;45717;-82
2021/06/14 08:28:56;;;;;;;;;10.25;9.00;;;;;24.67;37.36;101714.63;5055392;28;46477;-83
2021/06/14 08:31:23;;;;;;;;;7.00;7.00;;;;;24.71;36.63;101712.03;5071775;28;45513;-82
2021/06/14 08:33:48;;;;;;;;;11.00;8.25;;;;;24.73;35.93;101704.06;5059814;28;45415;-89
2021/06/14 08:36:14;;;;;;;;;8.50;8.00;;;;;24.67;36.60;101694.34;5061911;28;46362;-87
2021/06/14 08:38:40;;;;;;;;;7.00;7.00;;;;;24.72;35.77;101708.50;5061982;28;45393;-84
2021/06/14 08:41:06;;;;;;;;;10.75;8.25;;;;;24.78;35.94;101701.44;5063523;28;45450;-88
2021/06/14 08:43:33;;;;;;;;;9.50;7.25;;;;;24.83;36.01;101705.88;5061647;28;45319;-81
2021/06/14 08:45:59;;;;;;;;;8.50;8.00;;;;;24.87;36.49;101696.16;5059236;28;46189;-81
2021/06/14 08:48:25;;;;;;;;;11.00;7.25;;;;;24.91;36.83;101689.94;5059706;28;45216;-82
2021/06/14 08:50:52;;;;;;;;;8.75;8.75;;;;;24.93;35.99;101690.81;5061226;28;45475;-89
2021/06/14 08:53:19;;;;;;;;;7.25;6.25;;;;;24.94;36.08;101684.66;5068918;28;45378;-88
2021/06/14 08:55:45;;;;;;;;;12.50;9.75;;;;;24.92;36.18;101667.88;5065764;28;45650;-85
2021/06/14 08:58:11;;;;;;;;;9.00;8.25;;;;;24.97;36.00;101679.34;5074372;28;44976;-85
2021/06/14 09:00:37;;;;;;;;;8.25;7.50;;;;;25.06;35.78;101685.50;5070338;28;45176;-88
2021/06/14 09:03:04;;;;;;;;;12.50;8.50;;;;;25.10;35.75;101682.00;5053426;28;45560;-87
2021/06/14 09:05:30;;;;;;;;;10.00;8.75;;;;;25.08;35.86;101679.31;5046088;28;46817;-83
2021/06/14 09:07:56;;;;;;;;;8.00;8.00;;;;;25.16;36.14;101676.66;5044935;28;45591;-89
2021/06/14 09:10:30;;;;;;;;;9.00;8.00;;;;;25.25;35.55;101689.03;5046084;28;45666;-88
2021/06/14 09:13:12;;;;;;;;;11.25;11.25;;;;;25.29;35.47;101685.47;5064974;28;45467;-83
2021/06/14 09:15:41;;;;;;;;;10.25;9.00;;;;;25.27;35.57;101681.97;5057038;28;47009;-83
2021/06/14 09:18:18;;;;;;;;;10.00;8.00;;;;;25.35;35.74;101678.38;5052508;28;45528;-80
2021/06/14 09:21:02;;;;;;;;;10.25;8.25;;;;;25.41;34.71;101682.81;5058694;28;45538;-82
2021/06/14 09:23:39;;;;;;;;;9.75;9.00;;;;;25.43;34.89;101680.19;5058576;28;45344;-82
2021/06/14 09:26:05;;;;;;;;;6.00;6.00;;;;;25.49;34.60;101686.31;5057936;28;46367;-82
2021/06/14 09:28:31;;;;;;;;;7.00;6.00;;;;;25.47;35.37;101668.66;5059058;28;45429;-83
2021/06/14 09:30:57;;;;;;;;;8.75;7.75;;;;;25.47;34.68;101669.56;5061945;28;45217;-86
2021/06/14 09:33:25;;;;;;;;;9.75;8.25;;;;;25.50;34.07;101658.91;5060266;28;45390;-84
2021/06/14 09:36:03;;;;;;;;;8.00;8.00;;;;;25.64;33.42;101673.88;5058904;28;45470;-85
2021/06/14 09:38:29;;;;;;;;;6.75;6.75;;;;;25.68;33.26;101678.31;5059272;28;45398;-85
2021/06/14 09:40:57;;;;;;;;;2.50;2.50;;;;;25.61;32.01;101666.84;5059788;28;45457;-86
2021/06/14 09:43:38;;;;;;;;;8.00;7.25;;;;;25.75;32.19;101669.41;5061963;28;45324;-83
2021/06/14 09:46:20;;;;;;;;;7.00;5.75;;;;;25.70;31.69;101646.47;5058058;28;46490;-84
2021/06/14 09:48:47;;;;;;;;;8.75;6.50;;;;;25.79;31.85;101654.38;5038912;28;45532;-84
2021/06/14 09:51:13;;;;;;;;;8.25;6.25;;;;;25.86;31.82;101668.47;5038936;28;45435;-84
2021/06/14 09:53:47;;;;;;;;;8.50;7.00;;;;;25.91;31.46;101659.59;5054214;28;45518;-83
2021/06/14 09:56:25;;;;;;;;;6.00;6.00;;;;;25.96;31.71;101663.13;5057520;28;45668;-81
2021/06/14 09:58:53;;;;;;;;;9.50;7.50;;;;;26.02;32.39;101661.31;5060607;28;45513;-85
2021/06/14 10:01:28;;;;;;;;;6.50;5.50;;;;;26.02;32.13;101656.00;5059838;28;45300;-86
2021/06/14 10:03:55;;;;;;;;;8.00;6.75;;;;;26.08;31.73;101667.47;5056669;28;45392;-82
2021/06/14 10:06:33;;;;;;;;;6.00;6.00;;;;;26.13;31.93;101664.81;5051689;28;45494;-82
2021/06/14 10:08:59;;;;;;;;;8.50;6.25;;;;;26.15;31.88;101660.38;5036846;28;45852;-86
2021/06/14 10:11:33;;;;;;;;;11.50;10.50;;;;;26.18;32.11;101663.03;5061549;28;45368;-85
2021/06/14 10:14:08;;;;;;;;;10.50;9.00;;;;;26.18;32.34;101664.78;5062081;28;45383;-83
2021/06/14 10:16:36;;;;;;;;;8.25;7.50;;;;;26.26;30.82;101669.16;5058980;28;45643;-85
2021/06/14 10:19:05;;;;;;;;;12.00;7.50;;;;;26.25;31.00;101651.47;5055604;28;45537;-82
2021/06/14 10:21:33;;;;;;;;;11.00;8.50;;;;;26.29;30.91;101657.63;5053501;28;45848;-81
2021/06/14 10:24:05;;;;;;;;;8.75;7.25;;;;;26.40;30.66;101666.41;5056472;28;45424;-84
2021/06/14 10:26:31;;;;;;;;;7.25;5.00;;;;;26.41;30.34;101660.19;5057524;28;46145;-86
2021/06/14 10:28:58;;;;;;;;;4.00;4.00;;;;;26.49;29.73;101667.22;5057659;28;46215;-79
2021/06/14 10:31:24;;;;;;;;;7.50;6.50;;;;;26.54;29.69;101654.78;5062259;28;45332;-88
2021/06/14 10:33:52;;;;;;;;;5.75;5.75;;;;;26.53;29.43;101655.69;5046013;28;45368;-83
2021/06/14 10:36:24;;;;;;;;;6.25;6.25;;;;;26.63;29.72;101665.34;5059533;28;45325;-80
2021/06/14 10:38:52;;;;;;;;;7.25;7.25;;;;;26.67;29.53;101650.25;5058654;28;45681;-77
2021/06/14 10:41:18;;;;;;;;;4.75;4.75;;;;;26.75;29.89;101671.44;5060193;28;45280;-82
2021/06/14 10:43:45;;;;;;;;;6.75;6.75;;;;;26.79;29.54;101667.88;5058940;28;45220;-82
2021/06/14 10:46:16;;;;;;;;;6.25;6.00;;;;;26.75;29.55;101650.19;5058872;28;45540;-83
2021/06/14 10:48:43;;;;;;;;;8.75;6.50;;;;;26.66;29.00;101633.44;5057722;28;45277;-83
2021/06/14 10:51:17;;;;;;;;;7.00;7.00;;;;;26.81;28.79;101647.47;5057787;28;45173;-82
2021/06/14 10:53:43;;;;;;;;;3.75;3.75;;;;;26.88;28.06;101641.22;5058816;28;45256;-82
2021/06/14 10:56:14;;;;;;;;;6.50;6.50;;;;;26.98;28.18;101642.00;5064681;28;45292;-83
2021/06/14 10:58:43;;;;;;;;;5.00;5.00;;;;;27.01;28.89;101645.50;5063958;28;45683;-85
2021/06/14 11:01:15;;;;;;;;;7.25;6.50;;;;;27.03;29.18;101648.16;5059470;28;45339;-84
2021/06/14 11:03:44;;;;;;;;;8.25;7.50;;;;;27.08;28.19;101656.94;5058382;28;45552;-85
2021/06/14 11:06:25;;;;;;;;;6.50;6.00;;;;;27.14;29.06;101656.91;5056895;28;45499;-85
2021/06/14 11:09:03;;;;;;;;;10.00;7.25;;;;;27.17;28.32;101648.00;5059349;28;45361;-82
2021/06/14 11:11:29;;;;;;;;;6.00;6.00;;;;;27.16;27.66;101636.47;5064166;28;45255;-81
2021/06/14 11:13:55;;;;;;;;;6.00;6.00;;;;;27.22;28.17;101646.16;5055697;28;45315;-78
2021/06/14 11:16:21;;;;;;;;;7.25;6.00;;;;;27.28;27.81;101639.88;5057970;28;45920;-82
2021/06/14 11:18:53;;;;;;;;;8.00;8.00;;;;;27.29;28.11;101636.34;5056965;28;45294;-80
2021/06/14 11:21:21;;;;;;;;;7.00;6.00;;;;;27.38;27.66;101646.84;5038884;28;45315;-80
2021/06/14 11:23:49;;;;;;;;;5.25;4.25;;;;;27.28;27.50;101642.53;5056624;28;45453;-82
2021/06/14 11:26:29;;;;;;;;;9.25;7.00;;;;;27.46;26.24;101647.69;5056541;28;46313;-81
2021/06/14 11:28:55;;;;;;;;;7.00;7.00;;;;;27.50;26.58;101641.41;5056224;28;45427;-76